sensor_id;sensor_type;location;lat;lon;timestamp;pressure;altitude;pressure_sealevel;temperature;humidity
10460;BME280;54412;51.206;6.888;2023-04-19T00:00:39;101862.00;;;13.30;59.17
10460;BME280;54412;51.206;6.888;2023-04-19T00:03:05;101863.41;;;13.18;59.69
10460;BME280;54412;51.206;6.888;2023-04-19T00:05:31;101857.22;;;13.18;60.03
10460;BME280;54412;51.206;6.888;2023-04-19T00:07:57;101852.97;;;13.14;59.96
10460;BME280;54412;51.206;6.888;2023-04-19T00:10:24;101859.88;;;13.18;60.18
10460;BME280;54412;51.206;6.888;2023-04-19T00:12:49;101857.66;;;13.29;59.90
10460;BME280;54412;51.206;6.888;2023-04-19T00:15:15;101846.78;;;13.35;59.69
10460;BME280;54412;51.206;6.888;2023-04-19T00:17:41;101852.34;;;13.29;59.51
10460;BME280;54412;51.206;6.888;2023-04-19T00:20:07;101853.97;;;13.11;60.38
10460;BME280;54412;51.206;6.888;2023-04-19T00:22:34;101843.00;;;13.20;60.25
10460;BME280;54412;51.206;6.888;2023-04-19T00:25:00;101845.69;;;13.19;60.38
10460;BME280;54412;51.206;6.888;2023-04-19T00:27:26;101851.34;;;13.31;60.14
10460;BME280;54412;51.206;6.888;2023-04-19T00:29:52;101851.19;;;13.14;60.70
10460;BME280;54412;51.206;6.888;2023-04-19T00:32:18;101851.34;;;13.31;60.42
10460;BME280;54412;51.206;6.888;2023-04-19T00:34:44;101850.88;;;13.22;60.43
10460;BME280;54412;51.206;6.888;2023-04-19T00:37:09;101845.91;;;13.14;60.93
10460;BME280;54412;51.206;6.888;2023-04-19T00:39:36;101844.72;;;13.21;60.66
10460;BME280;54412;51.206;6.888;2023-04-19T00:42:02;101840.03;;;13.06;61.25
10460;BME280;54412;51.206;6.888;2023-04-19T00:44:27;101845.91;;;13.14;61.24
10460;BME280;54412;51.206;6.888;2023-04-19T00:46:55;101842.44;;;13.12;61.15
10460;BME280;54412;51.206;6.888;2023-04-19T00:49:22;101841.56;;;13.12;61.25
10460;BME280;54412;51.206;6.888;2023-04-19T00:51:50;101839.94;;;13.09;61.57
10460;BME280;54412;51.206;6.888;2023-04-19T00:54:17;101841.88;;;13.04;61.99
10460;BME280;54412;51.206;6.888;2023-04-19T00:56:44;101837.28;;;13.09;61.81
10460;BME280;54412;51.206;6.888;2023-04-19T00:59:12;101831.66;;;13.17;61.72
10460;BME280;54412;51.206;6.888;2023-04-19T01:01:38;101833.63;;;13.12;61.76
10460;BME280;54412;51.206;6.888;2023-04-19T01:04:04;101829.59;;;13.03;62.10
10460;BME280;54412;51.206;6.888;2023-04-19T01:06:31;101831.28;;;13.04;62.60
10460;BME280;54412;51.206;6.888;2023-04-19T01:08:57;101825.75;;;13.10;62.39
10460;BME280;54412;51.206;6.888;2023-04-19T01:11:23;101825.97;;;13.06;62.56
10460;BME280;54412;51.206;6.888;2023-04-19T01:13:50;101826.72;;;13.08;62.83
10460;BME280;54412;51.206;6.888;2023-04-19T01:16:16;101823.69;;;12.95;63.40
10460;BME280;54412;51.206;6.888;2023-04-19T01:18:42;101823.25;;;13.07;63.13
10460;BME280;54412;51.206;6.888;2023-04-19T01:21:08;101821.25;;;13.12;62.71
10460;BME280;54412;51.206;6.888;2023-04-19T01:23:37;101831.31;;;13.24;62.90
10460;BME280;54412;51.206;6.888;2023-04-19T01:26:04;101819.94;;;13.22;62.89
10460;BME280;54412;51.206;6.888;2023-04-19T01:28:31;101826.47;;;13.14;63.37
10460;BME280;54412;51.206;6.888;2023-04-19T01:30:57;101821.50;;;13.06;63.55
10460;BME280;54412;51.206;6.888;2023-04-19T01:33:23;101829.13;;;13.14;63.44
10460;BME280;54412;51.206;6.888;2023-04-19T01:35:48;101813.97;;;13.17;63.61
10460;BME280;54412;51.206;6.888;2023-04-19T01:38:15;101815.00;;;13.13;63.66
10460;BME280;54412;51.206;6.888;2023-04-19T01:40:42;101813.06;;;13.18;63.88
10460;BME280;54412;51.206;6.888;2023-04-19T01:43:10;101811.63;;;13.10;64.02
10460;BME280;54412;51.206;6.888;2023-04-19T01:45:36;101808.19;;;13.08;64.32
10460;BME280;54412;51.206;6.888;2023-04-19T01:48:02;101806.97;;;13.16;64.13
10460;BME280;54412;51.206;6.888;2023-04-19T01:50:30;101805.69;;;13.05;64.72
10460;BME280;54412;51.206;6.888;2023-04-19T01:52:56;101810.41;;;12.97;64.95
10460;BME280;54412;51.206;6.888;2023-04-19T01:55:22;101805.50;;;12.88;65.53
10460;BME280;54412;51.206;6.888;2023-04-19T01:57:47;101808.19;;;13.08;64.83
10460;BME280;54412;51.206;6.888;2023-04-19T02:00:13;101810.34;;;12.98;64.95
10460;BME280;54412;51.206;6.888;2023-04-19T02:02:40;101810.22;;;13.23;64.56
10460;BME280;54412;51.206;6.888;2023-04-19T02:05:07;101804.97;;;13.21;64.60
10460;BME280;54412;51.206;6.888;2023-04-19T02:07:33;101805.50;;;13.09;64.97
10460;BME280;54412;51.206;6.888;2023-04-19T02:09:59;101810.97;;;13.05;65.56
10460;BME280;54412;51.206;6.888;2023-04-19T02:12:29;101805.59;;;13.06;65.56
10460;BME280;54412;51.206;6.888;2023-04-19T02:14:59;101803.69;;;12.88;66.46
10460;BME280;54412;51.206;6.888;2023-04-19T02:17:27;101799.75;;;13.20;65.53
10460;BME280;54412;51.206;6.888;2023-04-19T02:19:53;101801.78;;;13.13;65.45
10460;BME280;54412;51.206;6.888;2023-04-19T02:22:19;101803.38;;;13.17;65.79
10460;BME280;54412;51.206;6.888;2023-04-19T02:24:45;101797.03;;;13.00;66.31
10460;BME280;54412;51.206;6.888;2023-04-19T02:27:11;101797.03;;;13.00;66.44
10460;BME280;54412;51.206;6.888;2023-04-19T02:29:37;101795.19;;;12.80;66.86
10460;BME280;54412;51.206;6.888;2023-04-19T02:32:03;101789.84;;;12.82;67.15
10460;BME280;54412;51.206;6.888;2023-04-19T02:34:32;101791.06;;;12.95;66.67
10460;BME280;54412;51.206;6.888;2023-04-19T02:36:57;101797.91;;;12.79;67.03
10460;BME280;54412;51.206;6.888;2023-04-19T02:39:23;101797.72;;;12.83;67.28
10460;BME280;54412;51.206;6.888;2023-04-19T02:41:49;101792.34;;;12.85;66.76
10460;BME280;54412;51.206;6.888;2023-04-19T02:44:15;101800.28;;;12.65;67.71
10460;BME280;54412;51.206;6.888;2023-04-19T02:46:47;101811.25;;;12.76;67.01
10460;BME280;54412;51.206;6.888;2023-04-19T02:49:13;101804.19;;;12.76;67.08
10460;BME280;54412;51.206;6.888;2023-04-19T02:51:38;101806.84;;;12.76;67.00
10460;BME280;54412;51.206;6.888;2023-04-19T02:54:04;101809.63;;;12.73;66.91
10460;BME280;54412;51.206;6.888;2023-04-19T02:56:30;101813.81;;;12.79;66.61
10460;BME280;54412;51.206;6.888;2023-04-19T02:59:00;101804.78;;;12.61;67.23
10460;BME280;54412;51.206;6.888;2023-04-19T03:01:26;101798.22;;;12.71;66.85
10460;BME280;54412;51.206;6.888;2023-04-19T03:03:51;101798.00;;;12.77;66.29
10460;BME280;54412;51.206;6.888;2023-04-19T03:06:17;101800.72;;;12.74;66.26
10460;BME280;54412;51.206;6.888;2023-04-19T03:08:43;101802.94;;;12.63;66.51
10460;BME280;54412;51.206;6.888;2023-04-19T03:11:11;101805.13;;;12.53;66.90
10460;BME280;54412;51.206;6.888;2023-04-19T03:13:36;101791.63;;;12.59;66.96
10460;BME280;54412;51.206;6.888;2023-04-19T03:16:04;101792.31;;;12.65;66.63
10460;BME280;54412;51.206;6.888;2023-04-19T03:18:30;101783.88;;;12.55;67.36
10460;BME280;54412;51.206;6.888;2023-04-19T03:20:56;101788.38;;;12.53;67.30
10460;BME280;54412;51.206;6.888;2023-04-19T03:23:21;101784.78;;;12.54;67.42
10460;BME280;54412;51.206;6.888;2023-04-19T03:25:47;101774.84;;;12.60;67.19
10460;BME280;54412;51.206;6.888;2023-04-19T03:28:13;101779.84;;;12.67;67.13
10460;BME280;54412;51.206;6.888;2023-04-19T03:30:39;101773.66;;;12.68;66.72
10460;BME280;54412;51.206;6.888;2023-04-19T03:33:04;101776.47;;;12.85;65.71
10460;BME280;54412;51.206;6.888;2023-04-19T03:35:30;101771.13;;;12.86;65.63
10460;BME280;54412;51.206;6.888;2023-04-19T03:37:57;101771.81;;;12.70;66.05
10460;BME280;54412;51.206;6.888;2023-04-19T03:40:22;101772.03;;;12.85;65.63
10460;BME280;54412;51.206;6.888;2023-04-19T03:42:48;101767.78;;;12.81;65.70
10460;BME280;54412;51.206;6.888;2023-04-19T03:45:14;101771.91;;;12.67;66.09
10460;BME280;54412;51.206;6.888;2023-04-19T03:47:40;101781.03;;;12.59;65.84
10460;BME280;54412;51.206;6.888;2023-04-19T03:50:06;101762.03;;;12.72;65.65
10460;BME280;54412;51.206;6.888;2023-04-19T03:52:32;101769.72;;;12.56;66.29
10460;BME280;54412;51.206;6.888;2023-04-19T03:54:58;101759.41;;;12.70;65.80
10460;BME280;54412;51.206;6.888;2023-04-19T03:57:24;101771.53;;;12.55;65.70
10460;BME280;54412;51.206;6.888;2023-04-19T03:59:49;101769.25;;;12.68;65.41
10460;BME280;54412;51.206;6.888;2023-04-19T04:02:15;101768.41;;;12.88;64.82
10460;BME280;54412;51.206;6.888;2023-04-19T04:04:40;101765.06;;;12.83;64.81
10460;BME280;54412;51.206;6.888;2023-04-19T04:07:06;101769.03;;;12.73;65.04
10460;BME280;54412;51.206;6.888;2023-04-19T04:09:32;101765.22;;;12.80;64.91
10460;BME280;54412;51.206;6.888;2023-04-19T04:11:57;101759.38;;;12.72;64.71
10460;BME280;54412;51.206;6.888;2023-04-19T04:14:23;101758.16;;;12.58;65.39
10460;BME280;54412;51.206;6.888;2023-04-19T04:16:49;101758.88;;;12.62;65.03
10460;BME280;54412;51.206;6.888;2023-04-19T04:19:15;101761.28;;;12.68;64.33
10460;BME280;54412;51.206;6.888;2023-04-19T04:21:40;101753.66;;;12.60;64.68
10460;BME280;54412;51.206;6.888;2023-04-19T04:24:06;101753.34;;;12.68;64.03
10460;BME280;54412;51.206;6.888;2023-04-19T04:26:32;101761.53;;;12.62;63.69
10460;BME280;54412;51.206;6.888;2023-04-19T04:29:00;101760.00;;;12.56;63.57
10460;BME280;54412;51.206;6.888;2023-04-19T04:31:28;101758.94;;;12.60;63.02
10460;BME280;54412;51.206;6.888;2023-04-19T04:33:54;101766.97;;;12.59;62.77
10460;BME280;54412;51.206;6.888;2023-04-19T04:36:20;101771.19;;;12.63;62.69
10460;BME280;54412;51.206;6.888;2023-04-19T04:38:46;101771.88;;;12.46;62.91
10460;BME280;54412;51.206;6.888;2023-04-19T04:41:12;101768.22;;;12.49;63.13
10460;BME280;54412;51.206;6.888;2023-04-19T04:43:38;101761.41;;;12.65;61.64
10460;BME280;54412;51.206;6.888;2023-04-19T04:46:04;101767.63;;;12.64;61.93
10460;BME280;54412;51.206;6.888;2023-04-19T04:48:30;101778.22;;;12.64;61.98
10460;BME280;54412;51.206;6.888;2023-04-19T04:50:56;101773.47;;;12.72;61.28
10460;BME280;54412;51.206;6.888;2023-04-19T04:53:25;101772.97;;;12.84;60.63
10460;BME280;54412;51.206;6.888;2023-04-19T04:55:54;101773.72;;;12.66;61.20
10460;BME280;54412;51.206;6.888;2023-04-19T04:58:20;101768.50;;;12.65;61.77
10460;BME280;54412;51.206;6.888;2023-04-19T05:00:46;101770.72;;;12.53;62.06
10460;BME280;54412;51.206;6.888;2023-04-19T05:03:13;101773.16;;;12.80;61.45
10460;BME280;54412;51.206;6.888;2023-04-19T05:05:39;101763.66;;;12.74;63.05
10460;BME280;54412;51.206;6.888;2023-04-19T05:08:05;101763.94;;;12.90;64.24
10460;BME280;54412;51.206;6.888;2023-04-19T05:10:31;101768.50;;;12.86;62.11
10460;BME280;54412;51.206;6.888;2023-04-19T05:12:56;101759.00;;;13.01;61.65
10460;BME280;54412;51.206;6.888;2023-04-19T05:15:22;101753.91;;;12.96;63.09
10460;BME280;54412;51.206;6.888;2023-04-19T05:17:48;101764.53;;;12.96;61.59
10460;BME280;54412;51.206;6.888;2023-04-19T05:20:13;101757.44;;;12.97;60.95
10460;BME280;54412;51.206;6.888;2023-04-19T05:22:39;101763.53;;;12.99;60.37
10460;BME280;54412;51.206;6.888;2023-04-19T05:25:06;101762.44;;;13.04;59.71
10460;BME280;54412;51.206;6.888;2023-04-19T05:27:31;101761.38;;;13.08;59.06
10460;BME280;54412;51.206;6.888;2023-04-19T05:29:57;101755.03;;;13.12;60.77
10460;BME280;54412;51.206;6.888;2023-04-19T05:32:23;101769.59;;;13.02;59.53
10460;BME280;54412;51.206;6.888;2023-04-19T05:34:48;101767.31;;;12.93;60.19
10460;BME280;54412;51.206;6.888;2023-04-19T05:37:14;101762.13;;;12.90;58.51
10460;BME280;54412;51.206;6.888;2023-04-19T05:39:40;101762.59;;;13.00;57.65
10460;BME280;54412;51.206;6.888;2023-04-19T05:42:05;101763.94;;;12.90;57.65
10460;BME280;54412;51.206;6.888;2023-04-19T05:44:31;101763.88;;;12.70;57.99
10460;BME280;54412;51.206;6.888;2023-04-19T05:46:57;101759.19;;;12.76;57.59
10460;BME280;54412;51.206;6.888;2023-04-19T05:49:23;101754.69;;;12.78;57.90
10460;BME280;54412;51.206;6.888;2023-04-19T05:51:48;101764.03;;;12.87;57.98
10460;BME280;54412;51.206;6.888;2023-04-19T05:54:14;101768.97;;;12.74;57.13
10460;BME280;54412;51.206;6.888;2023-04-19T05:56:40;101767.06;;;12.78;56.24
10460;BME280;54412;51.206;6.888;2023-04-19T05:59:05;101769.31;;;12.87;56.31
10460;BME280;54412;51.206;6.888;2023-04-19T06:01:32;101767.84;;;12.80;56.81
10460;BME280;54412;51.206;6.888;2023-04-19T06:03:58;101771.97;;;12.87;55.74
10460;BME280;54412;51.206;6.888;2023-04-19T06:06:23;101766.75;;;12.85;55.97
10460;BME280;54412;51.206;6.888;2023-04-19T06:08:49;101768.22;;;12.92;55.76
10460;BME280;54412;51.206;6.888;2023-04-19T06:11:15;101768.13;;;12.94;54.10
10460;BME280;54412;51.206;6.888;2023-04-19T06:13:41;101766.56;;;12.90;54.08
10460;BME280;54412;51.206;6.888;2023-04-19T06:16:07;101774.63;;;12.87;53.97
10460;BME280;54412;51.206;6.888;2023-04-19T06:18:33;101769.09;;;12.93;54.59
10460;BME280;54412;51.206;6.888;2023-04-19T06:20:59;101771.09;;;13.08;53.40
10460;BME280;54412;51.206;6.888;2023-04-19T06:23:24;101775.63;;;13.06;53.25
10460;BME280;54412;51.206;6.888;2023-04-19T06:25:51;101766.69;;;13.08;52.59
10460;BME280;54412;51.206;6.888;2023-04-19T06:28:18;101766.81;;;12.84;52.94
10460;BME280;54412;51.206;6.888;2023-04-19T06:30:44;101771.72;;;12.93;52.87
10460;BME280;54412;51.206;6.888;2023-04-19T06:33:10;101772.38;;;12.98;53.30
10460;BME280;54412;51.206;6.888;2023-04-19T06:35:35;101768.94;;;12.96;53.14
10460;BME280;54412;51.206;6.888;2023-04-19T06:38:01;101769.59;;;13.02;52.92
10460;BME280;54412;51.206;6.888;2023-04-19T06:40:27;101770.13;;;13.30;52.68
10460;BME280;54412;51.206;6.888;2023-04-19T06:42:54;101772.47;;;13.38;51.78
10460;BME280;54412;51.206;6.888;2023-04-19T06:45:20;101759.06;;;13.21;51.76
10460;BME280;54412;51.206;6.888;2023-04-19T06:47:46;101768.75;;;13.22;51.30
10460;BME280;54412;51.206;6.888;2023-04-19T06:50:11;101766.19;;;13.20;51.48
10460;BME280;54412;51.206;6.888;2023-04-19T06:52:38;101775.38;;;13.32;51.56
10460;BME280;54412;51.206;6.888;2023-04-19T06:55:05;101777.44;;;13.25;51.22
10460;BME280;54412;51.206;6.888;2023-04-19T06:57:31;101773.44;;;13.15;51.84
10460;BME280;54412;51.206;6.888;2023-04-19T06:59:58;101775.75;;;13.03;52.36
10460;BME280;54412;51.206;6.888;2023-04-19T07:02:24;101777.41;;;12.84;52.45
10460;BME280;54412;51.206;6.888;2023-04-19T07:04:49;101768.03;;;13.18;51.79
10460;BME280;54412;51.206;6.888;2023-04-19T07:07:15;101778.28;;;13.06;51.59
10460;BME280;54412;51.206;6.888;2023-04-19T07:09:41;101773.97;;;13.03;51.67
10460;BME280;54412;51.206;6.888;2023-04-19T07:12:07;101769.75;;;12.98;52.09
10460;BME280;54412;51.206;6.888;2023-04-19T07:14:33;101767.69;;;13.06;51.27
10460;BME280;54412;51.206;6.888;2023-04-19T07:16:58;101764.16;;;13.05;51.17
10460;BME280;54412;51.206;6.888;2023-04-19T07:19:24;101767.69;;;12.84;51.30
10460;BME280;54412;51.206;6.888;2023-04-19T07:21:51;101761.97;;;12.73;51.91
10460;BME280;54412;51.206;6.888;2023-04-19T07:24:17;101767.34;;;12.92;50.94
10460;BME280;54412;51.206;6.888;2023-04-19T07:26:42;101764.38;;;12.99;51.27
10460;BME280;54412;51.206;6.888;2023-04-19T07:29:08;101762.84;;;13.15;50.62
10460;BME280;54412;51.206;6.888;2023-04-19T07:31:34;101756.31;;;13.24;49.96
10460;BME280;54412;51.206;6.888;2023-04-19T07:33:59;101755.13;;;13.31;50.27
10460;BME280;54412;51.206;6.888;2023-04-19T07:36:25;101759.47;;;13.52;48.96
10460;BME280;54412;51.206;6.888;2023-04-19T07:38:51;101753.16;;;13.93;49.09
10460;BME280;54412;51.206;6.888;2023-04-19T07:41:17;101755.56;;;13.98;48.47
10460;BME280;54412;51.206;6.888;2023-04-19T07:43:42;101758.94;;;13.83;47.89
10460;BME280;54412;51.206;6.888;2023-04-19T07:46:11;101759.03;;;14.00;47.75
10460;BME280;54412;51.206;6.888;2023-04-19T07:48:37;101761.19;;;14.10;47.33
10460;BME280;54412;51.206;6.888;2023-04-19T07:51:13;101765.13;;;14.02;47.02
10460;BME280;54412;51.206;6.888;2023-04-19T07:53:40;101757.16;;;14.02;47.36
10460;BME280;54412;51.206;6.888;2023-04-19T07:56:10;101761.66;;;14.00;47.60
10460;BME280;54412;51.206;6.888;2023-04-19T07:58:37;101761.25;;;14.09;48.05
10460;BME280;54412;51.206;6.888;2023-04-19T08:01:04;101764.97;;;14.23;46.31
10460;BME280;54412;51.206;6.888;2023-04-19T08:03:32;101759.25;;;14.51;46.04
10460;BME280;54412;51.206;6.888;2023-04-19T08:06:02;101758.19;;;14.55;44.45
10460;BME280;54412;51.206;6.888;2023-04-19T08:08:29;101756.97;;;14.79;45.15
10460;BME280;54412;51.206;6.888;2023-04-19T08:10:55;101751.19;;;14.88;44.60
10460;BME280;54412;51.206;6.888;2023-04-19T08:13:20;101759.28;;;15.04;44.72
10460;BME280;54412;51.206;6.888;2023-04-19T08:15:46;101764.13;;;14.60;42.96
10460;BME280;54412;51.206;6.888;2023-04-19T08:18:12;101766.16;;;14.36;43.72
10460;BME280;54412;51.206;6.888;2023-04-19T08:20:38;101771.00;;;15.00;43.88
10460;BME280;54412;51.206;6.888;2023-04-19T08:23:07;101765.50;;;15.03;43.02
10460;BME280;54412;51.206;6.888;2023-04-19T08:25:33;101755.25;;;15.29;41.83
10460;BME280;54412;51.206;6.888;2023-04-19T08:28:00;101757.69;;;15.34;41.43
10460;BME280;54412;51.206;6.888;2023-04-19T08:30:26;101766.59;;;15.33;41.38
10460;BME280;54412;51.206;6.888;2023-04-19T08:32:51;101758.50;;;15.36;41.23
10460;BME280;54412;51.206;6.888;2023-04-19T08:35:17;101757.38;;;15.23;41.62
10460;BME280;54412;51.206;6.888;2023-04-19T08:37:43;101760.03;;;15.06;41.45
10460;BME280;54412;51.206;6.888;2023-04-19T08:40:09;101757.34;;;15.41;41.00
10460;BME280;54412;51.206;6.888;2023-04-19T08:42:36;101760.84;;;15.42;40.64
10460;BME280;54412;51.206;6.888;2023-04-19T08:45:03;101765.09;;;15.79;41.14
10460;BME280;54412;51.206;6.888;2023-04-19T08:47:34;101745.97;;;16.03;40.69
10460;BME280;54412;51.206;6.888;2023-04-19T08:50:03;101755.22;;;15.81;39.48
10460;BME280;54412;51.206;6.888;2023-04-19T08:52:29;101773.16;;;15.60;39.19
10460;BME280;54412;51.206;6.888;2023-04-19T08:55:00;101758.88;;;15.45;39.94
10460;BME280;54412;51.206;6.888;2023-04-19T08:57:33;101764.59;;;15.55;38.85
10460;BME280;54412;51.206;6.888;2023-04-19T09:00:00;101759.88;;;15.60;38.83
10460;BME280;54412;51.206;6.888;2023-04-19T09:02:27;101749.75;;;15.99;40.08
10460;BME280;54412;51.206;6.888;2023-04-19T09:04:53;101764.47;;;16.22;38.93
10460;BME280;54412;51.206;6.888;2023-04-19T09:07:26;101751.16;;;16.37;37.38
10460;BME280;54412;51.206;6.888;2023-04-19T09:10:08;101751.47;;;16.16;37.72
10460;BME280;54412;51.206;6.888;2023-04-19T09:12:34;101760.59;;;16.12;38.33
10460;BME280;54412;51.206;6.888;2023-04-19T09:15:03;101757.22;;;16.08;37.49
10460;BME280;54412;51.206;6.888;2023-04-19T09:17:30;101755.72;;;16.66;38.14
10460;BME280;54412;51.206;6.888;2023-04-19T09:19:56;101753.66;;;16.56;37.04
10460;BME280;54412;51.206;6.888;2023-04-19T09:22:23;101756.03;;;15.98;37.06
10460;BME280;54412;51.206;6.888;2023-04-19T09:24:49;101743.84;;;16.10;37.60
10460;BME280;54412;51.206;6.888;2023-04-19T09:27:26;101746.00;;;16.34;38.57
10460;BME280;54412;51.206;6.888;2023-04-19T09:29:59;101737.00;;;16.37;37.28
10460;BME280;54412;51.206;6.888;2023-04-19T09:32:26;101754.31;;;16.28;36.90
10460;BME280;54412;51.206;6.888;2023-04-19T09:34:57;101745.94;;;16.67;37.15
10460;BME280;54412;51.206;6.888;2023-04-19T09:37:25;101735.75;;;16.89;36.09
10460;BME280;54412;51.206;6.888;2023-04-19T09:39:52;101722.56;;;17.02;36.16
10460;BME280;54412;51.206;6.888;2023-04-19T09:42:18;101722.94;;;17.10;35.73
10460;BME280;54412;51.206;6.888;2023-04-19T09:44:58;101720.69;;;17.18;35.00
10460;BME280;54412;51.206;6.888;2023-04-19T09:47:25;101713.25;;;17.09;35.19
10460;BME280;54412;51.206;6.888;2023-04-19T09:50:08;101714.84;;;17.11;35.64
10460;BME280;54412;51.206;6.888;2023-04-19T09:52:34;101707.25;;;17.05;34.48
10460;BME280;54412;51.206;6.888;2023-04-19T09:55:03;101716.47;;;16.54;35.15
10460;BME280;54412;51.206;6.888;2023-04-19T09:57:31;101720.84;;;16.71;35.61
10460;BME280;54412;51.206;6.888;2023-04-19T10:00:01;101719.72;;;17.19;35.53
10460;BME280;54412;51.206;6.888;2023-04-19T10:02:31;101712.44;;;16.93;34.11
10460;BME280;54412;51.206;6.888;2023-04-19T10:04:58;101706.59;;;17.16;35.04
10460;BME280;54412;51.206;6.888;2023-04-19T10:07:25;101704.81;;;16.87;34.27
10460;BME280;54412;51.206;6.888;2023-04-19T10:09:54;101721.47;;;16.90;34.37
10460;BME280;54412;51.206;6.888;2023-04-19T10:12:26;101705.81;;;16.84;32.96
10460;BME280;54412;51.206;6.888;2023-04-19T10:14:55;101709.53;;;17.11;34.59
10460;BME280;54412;51.206;6.888;2023-04-19T10:17:22;101709.09;;;17.33;34.46
10460;BME280;54412;51.206;6.888;2023-04-19T10:19:56;101704.28;;;17.53;34.46
10460;BME280;54412;51.206;6.888;2023-04-19T10:22:23;101704.44;;;17.93;33.77
10460;BME280;54412;51.206;6.888;2023-04-19T10:25:28;101718.97;;;17.60;28.77
10460;BME280;54412;51.206;6.888;2023-04-19T10:27:54;101714.47;;;17.89;29.40
10460;BME280;54412;51.206;6.888;2023-04-19T10:30:22;101712.59;;;17.77;29.99
10460;BME280;54412;51.206;6.888;2023-04-19T10:32:57;101702.38;;;17.69;30.28
10460;BME280;54412;51.206;6.888;2023-04-19T10:35:34;101707.81;;;17.68;30.76
10460;BME280;54412;51.206;6.888;2023-04-19T10:38:10;101696.59;;;17.05;31.27
10460;BME280;54412;51.206;6.888;2023-04-19T10:40:59;101704.44;;;17.50;30.23
10460;BME280;54412;51.206;6.888;2023-04-19T10:43:30;101705.03;;;17.84;29.35
10460;BME280;54412;51.206;6.888;2023-04-19T10:46:04;101703.56;;;18.06;28.94
10460;BME280;54412;51.206;6.888;2023-04-19T10:48:35;101714.16;;;18.75;28.42
10460;BME280;54412;51.206;6.888;2023-04-19T10:51:17;101705.09;;;18.77;27.79
10460;BME280;54412;51.206;6.888;2023-04-19T10:59:26;101705.09;;;18.10;26.30
10460;BME280;54412;51.206;6.888;2023-04-19T11:02:04;101702.25;;;18.13;25.68
10460;BME280;54412;51.206;6.888;2023-04-19T11:07:02;101684.69;;;18.50;26.16
10460;BME280;54412;51.206;6.888;2023-04-19T11:09:31;101677.47;;;18.64;25.80
10460;BME280;54412;51.206;6.888;2023-04-19T11:12:07;101687.19;;;19.05;26.67
10460;BME280;54412;51.206;6.888;2023-04-19T11:14:40;101692.38;;;18.81;25.54
10460;BME280;54412;51.206;6.888;2023-04-19T11:17:28;101691.44;;;18.15;25.43
10460;BME280;54412;51.206;6.888;2023-04-19T11:22:31;101690.88;;;18.90;25.94
10460;BME280;54412;51.206;6.888;2023-04-19T11:25:20;101688.69;;;18.16;25.59
10460;BME280;54412;51.206;6.888;2023-04-19T11:27:48;101690.41;;;18.44;25.55
10460;BME280;54412;51.206;6.888;2023-04-19T11:30:18;101688.06;;;18.78;25.39
10460;BME280;54412;51.206;6.888;2023-04-19T11:32:50;101677.22;;;18.94;24.14
10460;BME280;54412;51.206;6.888;2023-04-19T11:37:47;101659.56;;;18.92;24.51
10460;BME280;54412;51.206;6.888;2023-04-19T11:40:18;101670.53;;;18.74;24.79
10460;BME280;54412;51.206;6.888;2023-04-19T11:42:45;101656.28;;;19.26;25.38
10460;BME280;54412;51.206;6.888;2023-04-19T11:45:23;101664.00;;;18.13;26.26
10460;BME280;54412;51.206;6.888;2023-04-19T11:47:50;101659.97;;;18.20;25.16
10460;BME280;54412;51.206;6.888;2023-04-19T11:50:40;101666.66;;;18.39;25.28
10460;BME280;54412;51.206;6.888;2023-04-19T11:53:17;101660.69;;;17.81;25.97
10460;BME280;54412;51.206;6.888;2023-04-19T11:55:56;101660.56;;;18.37;25.81
10460;BME280;54412;51.206;6.888;2023-04-19T12:03:31;101649.72;;;18.53;26.46
10460;BME280;54412;51.206;6.888;2023-04-19T12:06:00;101633.16;;;18.48;25.99
10460;BME280;54412;51.206;6.888;2023-04-19T12:08:33;101646.22;;;19.04;25.00
10460;BME280;54412;51.206;6.888;2023-04-19T12:11:01;101646.34;;;18.51;25.10
10460;BME280;54412;51.206;6.888;2023-04-19T12:13:28;101639.44;;;18.73;26.58
10460;BME280;54412;51.206;6.888;2023-04-19T12:15:59;101631.59;;;19.35;26.66
10460;BME280;54412;51.206;6.888;2023-04-19T12:18:25;101638.63;;;19.48;25.96
10460;BME280;54412;51.206;6.888;2023-04-19T12:20:52;101625.47;;;19.45;26.08
10460;BME280;54412;51.206;6.888;2023-04-19T12:23:19;101620.75;;;19.11;25.55
10460;BME280;54412;51.206;6.888;2023-04-19T12:25:47;101619.06;;;19.10;26.53
10460;BME280;54412;51.206;6.888;2023-04-19T12:28:15;101614.53;;;18.86;25.58
10460;BME280;54412;51.206;6.888;2023-04-19T12:30:41;101608.75;;;19.29;26.31
10460;BME280;54412;51.206;6.888;2023-04-19T12:33:08;101608.25;;;19.86;26.36
10460;BME280;54412;51.206;6.888;2023-04-19T12:35:34;101593.78;;;19.88;25.53
10460;BME280;54412;51.206;6.888;2023-04-19T12:38:00;101597.41;;;19.51;25.48
10460;BME280;54412;51.206;6.888;2023-04-19T12:40:27;101597.81;;;19.57;25.48
10460;BME280;54412;51.206;6.888;2023-04-19T12:42:53;101588.47;;;19.75;26.22
10460;BME280;54412;51.206;6.888;2023-04-19T12:45:20;101584.94;;;19.75;25.86
10460;BME280;54412;51.206;6.888;2023-04-19T12:47:47;101592.91;;;19.64;25.72
10460;BME280;54412;51.206;6.888;2023-04-19T12:50:14;101596.25;;;19.55;24.37
10460;BME280;54412;51.206;6.888;2023-04-19T12:52:43;101586.84;;;19.24;24.65
10460;BME280;54412;51.206;6.888;2023-04-19T12:55:09;101582.09;;;19.53;24.35
10460;BME280;54412;51.206;6.888;2023-04-19T12:57:34;101582.34;;;19.12;24.46
10460;BME280;54412;51.206;6.888;2023-04-19T13:00:00;101582.38;;;19.37;26.09
10460;BME280;54412;51.206;6.888;2023-04-19T13:02:26;101566.72;;;20.04;26.28
10460;BME280;54412;51.206;6.888;2023-04-19T13:04:52;101557.72;;;20.05;25.73
10460;BME280;54412;51.206;6.888;2023-04-19T13:07:17;101569.13;;;19.96;25.31
10460;BME280;54412;51.206;6.888;2023-04-19T13:09:43;101554.81;;;19.84;25.21